Time;durP1;ratioP1;P1;durP2;ratioP2;P2;SDS_P1;SDS_P2;PMS_P1;PMS_P2;Temp;Humidity;BMP_temperature;BMP_pressure;BME280_temperature;BME280_humidity;BME280_pressure;Samples;Min_cycle;Max_cycle;Signal;HPM_P1;HPM_P2
2021/12/15 00:00:18;;;;;;;37.20;27.73;;;11.00;99.90;;;;;;2072178;28;20378;-71
2021/12/15 00:01:19;;;;;;;35.80;27.05;;;11.00;99.90;;;;;;2071763;28;20109;-71
2021/12/15 00:02:22;;;;;;;38.83;28.70;;;11.00;99.90;;;;;;2071759;28;20029;-70
2021/12/15 00:03:23;;;;;;;34.80;27.25;;;11.00;99.90;;;;;;2070955;28;20588;-71
2021/12/15 00:04:23;;;;;;;35.83;26.98;;;11.00;99.90;;;;;;2071112;28;20529;-71
2021/12/15 00:05:26;;;;;;;35.22;27.33;;;11.00;99.90;;;;;;2071920;28;20084;-71
2021/12/15 00:06:27;;;;;;;37.63;26.88;;;11.00;99.90;;;;;;2071817;28;20122;-71
2021/12/15 00:07:28;;;;;;;35.20;26.35;;;11.00;99.90;;;;;;2072064;28;20030;-71
2021/12/15 00:08:29;;;;;;;33.38;26.67;;;11.00;99.90;;;;;;2071789;28;20033;-71
2021/12/15 00:09:30;;;;;;;33.40;26.58;;;11.00;99.90;;;;;;2071851;28;20026;-71
2021/12/15 00:10:31;;;;;;;31.77;24.63;;;11.00;99.90;;;;;;2069411;28;20022;-71
2021/12/15 00:11:36;;;;;;;35.58;26.05;;;11.00;99.90;;;;;;2071596;28;20052;-71
2021/12/15 00:12:36;;;;;;;32.40;25.80;;;11.00;99.90;;;;;;2072032;28;20014;-71
2021/12/15 00:13:39;;;;;;;37.33;27.05;;;11.00;99.90;;;;;;2071555;28;20072;-71
2021/12/15 00:14:41;;;;;;;37.03;26.48;;;11.10;99.90;;;;;;2070856;28;20036;-71
2021/12/15 00:15:45;;;;;;;33.38;25.70;;;11.10;99.90;;;;;;2071257;28;20021;-71
2021/12/15 00:16:48;;;;;;;32.53;25.95;;;11.10;99.90;;;;;;2071802;28;20105;-71
2021/12/15 00:17:50;;;;;;;33.35;25.85;;;11.10;99.90;;;;;;2070826;28;20042;-71
2021/12/15 00:18:51;;;;;;;35.30;26.58;;;11.10;99.90;;;;;;2070094;28;20025;-71
2021/12/15 00:19:52;;;;;;;36.05;27.13;;;11.00;99.90;;;;;;2071308;28;20049;-71
2021/12/15 00:20:52;;;;;;;33.63;26.58;;;11.00;99.90;;;;;;2071746;28;20022;-71
2021/12/15 00:21:55;;;;;;;34.30;26.50;;;11.10;99.90;;;;;;2071534;28;20030;-71
2021/12/15 00:22:56;;;;;;;34.38;25.67;;;11.10;99.90;;;;;;2071947;28;20133;-72
2021/12/15 00:23:57;;;;;;;33.70;25.08;;;11.10;99.90;;;;;;2071679;28;20093;-71
2021/12/15 00:24:57;;;;;;;29.00;24.63;;;11.10;99.90;;;;;;2071793;28;20093;-71
2021/12/15 00:25:58;;;;;;;33.75;25.50;;;11.10;99.90;;;;;;2071648;28;20091;-71
2021/12/15 00:26:59;;;;;;;34.67;26.60;;;11.10;99.90;;;;;;2071045;28;20117;-71
2021/12/15 00:28:00;;;;;;;30.42;25.05;;;11.10;99.90;;;;;;2071235;28;20030;-71
2021/12/15 00:29:03;;;;;;;30.55;24.42;;;11.10;99.90;;;;;;2070504;28;20033;-71
2021/12/15 00:30:07;;;;;;;36.13;25.17;;;11.10;99.90;;;;;;2070859;28;20025;-72
2021/12/15 00:31:08;;;;;;;33.88;25.85;;;11.10;99.90;;;;;;2071774;28;20421;-71
2021/12/15 00:32:09;;;;;;;32.78;24.75;;;11.10;99.90;;;;;;2071635;28;20047;-71
2021/12/15 00:33:10;;;;;;;31.40;25.33;;;11.10;99.90;;;;;;2071310;28;20029;-71
2021/12/15 00:34:11;;;;;;;29.20;24.48;;;11.10;99.90;;;;;;2071408;28;20366;-71
2021/12/15 00:35:11;;;;;;;30.48;23.38;;;11.10;99.90;;;;;;2071969;28;20033;-71
2021/12/15 00:36:14;;;;;;;29.55;23.65;;;11.10;99.90;;;;;;2071624;28;20584;-70
2021/12/15 00:37:14;;;;;;;28.73;23.27;;;11.10;99.90;;;;;;2071860;28;20022;-71
2021/12/15 00:38:15;;;;;;;30.77;22.98;;;11.10;99.90;;;;;;2069773;28;20056;-71
2021/12/15 00:39:21;;;;;;;28.65;22.73;;;11.10;99.90;;;;;;2069714;28;20462;-71
2021/12/15 00:40:23;;;;;;;26.88;22.40;;;11.10;99.90;;;;;;2071922;28;20028;-71
2021/12/15 00:41:25;;;;;;;29.17;21.60;;;11.10;99.90;;;;;;2071856;28;20029;-71
2021/12/15 00:42:25;;;;;;;26.88;22.10;;;11.10;99.90;;;;;;2071325;28;20018;-71
2021/12/15 00:43:26;;;;;;;29.80;21.02;;;11.10;99.90;;;;;;2071638;28;20037;-71
2021/12/15 00:44:27;;;;;;;25.58;21.20;;;11.10;99.90;;;;;;2071401;28;20501;-71
2021/12/15 00:45:27;;;;;;;29.23;22.30;;;11.10;99.90;;;;;;2071642;28;20221;-71
2021/12/15 00:46:28;;;;;;;25.65;21.83;;;11.10;99.90;;;;;;2069712;28;20030;-71
2021/12/15 00:47:29;;;;;;;28.92;22.10;;;11.10;99.90;;;;;;2071620;28;20462;-71
2021/12/15 00:48:30;;;;;;;27.98;21.73;;;11.10;99.90;;;;;;2071565;28;20017;-71
2021/12/15 00:49:30;;;;;;;25.67;20.85;;;11.10;99.90;;;;;;2070637;28;20030;-71
2021/12/15 00:50:34;;;;;;;28.40;20.27;;;11.10;99.90;;;;;;2071611;28;20153;-71
2021/12/15 00:51:39;;;;;;;24.23;19.45;;;11.10;99.90;;;;;;2071838;28;20439;-71
2021/12/15 00:52:42;;;;;;;27.85;20.63;;;11.10;99.90;;;;;;2071352;28;20409;-71
2021/12/15 00:53:42;;;;;;;26.08;20.17;;;11.10;99.90;;;;;;2070596;28;20083;-71
2021/12/15 00:54:43;;;;;;;26.02;19.85;;;11.10;99.90;;;;;;2070636;28;20064;-71
2021/12/15 00:55:44;;;;;;;25.17;19.63;;;11.10;99.90;;;;;;2078798;28;20029;-71
2021/12/15 00:56:45;;;;;;;25.63;20.33;;;11.10;99.90;;;;;;2071619;28;20025;-71
2021/12/15 00:57:47;;;;;;;25.27;20.35;;;11.00;99.90;;;;;;2071400;28;20030;-71
2021/12/15 00:58:47;;;;;;;25.55;19.40;;;11.00;99.90;;;;;;2071140;28;20455;-71
2021/12/15 00:59:48;;;;;;;22.63;18.73;;;11.10;99.90;;;;;;2071378;28;20060;-71
2021/12/15 01:00:56;;;;;;;23.40;18.42;;;11.00;99.90;;;;;;2071635;28;20536;-71
2021/12/15 01:01:58;;;;;;;26.27;20.02;;;11.00;99.90;;;;;;2070031;28;20030;-71
2021/12/15 01:02:59;;;;;;;22.25;18.73;;;11.00;99.90;;;;;;2070872;28;20045;-71
2021/12/15 01:04:00;;;;;;;26.15;19.05;;;11.00;99.90;;;;;;2071286;28;20025;-71
2021/12/15 01:05:01;;;;;;;22.83;18.58;;;11.00;99.90;;;;;;2071497;28;20050;-71
2021/12/15 01:06:09;;;;;;;23.38;18.25;;;11.00;99.90;;;;;;2070400;28;20490;-71
2021/12/15 01:07:11;;;;;;;25.02;19.75;;;11.10;99.90;;;;;;2071207;28;20033;-71
2021/12/15 01:08:18;;;;;;;24.50;18.40;;;11.00;99.90;;;;;;2071261;28;20030;-71
2021/12/15 01:09:32;;;;;;;24.25;19.60;;;11.00;99.90;;;;;;2067317;28;20061;-71
2021/12/15 01:10:54;;;;;;;23.42;19.13;;;11.00;99.90;;;;;;2068764;28;20037;-71
2021/12/15 01:20:50;;;;;;;21.67;16.85;;;10.90;99.90;;;;;;2072270;28;20025;-71
2021/12/15 01:21:52;;;;;;;23.42;17.30;;;10.90;99.90;;;;;;2073402;28;20494;-71
2021/12/15 01:22:55;;;;;;;22.42;17.17;;;10.90;99.90;;;;;;2074449;28;20037;-71
2021/12/15 01:23:56;;;;;;;21.92;16.98;;;10.90;99.90;;;;;;2070849;28;20026;-71
2021/12/15 01:25:24;;;;;;;25.60;16.95;;;10.90;99.90;;;;;;2070375;28;20052;-71
2021/12/15 01:26:25;;;;;;;22.13;17.10;;;11.00;99.90;;;;;;2070587;28;20117;-71
2021/12/15 01:27:26;;;;;;;24.50;16.73;;;10.90;99.90;;;;;;2077807;28;20033;-71
2021/12/15 01:28:29;;;;;;;19.20;16.25;;;10.90;99.90;;;;;;2073095;28;20022;-71
2021/12/15 01:29:30;;;;;;;21.45;16.45;;;10.90;99.90;;;;;;2070751;28;20030;-71
2021/12/15 01:30:34;;;;;;;25.08;16.67;;;10.90;99.90;;;;;;2071355;28;20022;-71
2021/12/15 01:31:35;;;;;;;21.23;16.98;;;10.90;99.90;;;;;;2071385;28;20041;-71
2021/12/15 01:32:36;;;;;;;21.48;17.23;;;11.00;99.90;;;;;;2071322;28;20029;-71
2021/12/15 01:33:38;;;;;;;23.85;17.30;;;11.00;99.90;;;;;;2069993;28;20486;-71
2021/12/15 01:34:38;;;;;;;23.08;15.95;;;11.00;99.90;;;;;;2070418;28;20033;-71
2021/12/15 01:35:42;;;;;;;19.23;15.35;;;10.90;99.90;;;;;;2074874;28;20028;-71
2021/12/15 01:36:43;;;;;;;19.23;16.13;;;10.90;99.90;;;;;;2071723;28;20025;-71
2021/12/15 01:37:45;;;;;;;20.10;16.42;;;10.90;99.90;;;;;;2071303;28;20029;-71
2021/12/15 01:38:47;;;;;;;20.27;15.98;;;10.90;99.90;;;;;;2070577;28;20080;-71
2021/12/15 01:39:53;;;;;;;20.52;16.02;;;10.90;99.90;;;;;;2071085;28;20032;-72
2021/12/15 01:40:54;;;;;;;18.98;15.27;;;10.90;99.90;;;;;;2071139;28;20026;-71
2021/12/15 01:41:56;;;;;;;19.65;15.57;;;10.90;99.90;;;;;;2071230;28;20052;-71
2021/12/15 01:42:57;;;;;;;18.13;16.10;;;10.90;99.90;;;;;;2071404;28;20026;-71
2021/12/15 01:47:59;;;;;;;19.73;16.08;;;10.90;99.90;;;;;;2073677;28;20541;-71
2021/12/15 01:49:10;;;;;;;21.08;16.17;;;10.90;99.90;;;;;;2070804;28;20041;-71
2021/12/15 01:50:12;;;;;;;21.00;16.23;;;10.80;99.90;;;;;;2077751;28;20412;-71
2021/12/15 01:51:13;;;;;;;20.58;16.13;;;10.90;99.90;;;;;;2074062;28;20120;-71
2021/12/15 01:52:16;;;;;;;20.60;16.17;;;10.90;99.90;;;;;;2073192;28;20030;-71
2021/12/15 01:53:17;;;;;;;20.00;16.77;;;10.90;99.90;;;;;;2072721;28;20037;-71
2021/12/15 01:54:19;;;;;;;23.92;17.58;;;10.90;99.90;;;;;;2073011;28;20026;-71
2021/12/15 01:55:20;;;;;;;18.73;16.08;;;10.90;99.90;;;;;;2080526;28;20033;-71
2021/12/15 01:56:21;;;;;;;20.95;16.80;;;10.90;99.90;;;;;;2080700;28;20022;-71
2021/12/15 01:57:25;;;;;;;19.13;16.35;;;10.90;99.90;;;;;;2072777;28;20037;-71
2021/12/15 01:58:26;;;;;;;18.83;15.80;;;10.90;99.90;;;;;;2072781;28;20029;-71
2021/12/15 01:59:29;;;;;;;21.33;16.55;;;11.00;99.90;;;;;;2072418;28;20052;-71
2021/12/15 02:00:53;;;;;;;19.65;16.30;;;11.00;99.90;;;;;;2073167;28;20631;-71
2021/12/15 02:01:54;;;;;;;22.95;17.10;;;10.90;99.90;;;;;;2072779;28;20018;-71
2021/12/15 02:02:56;;;;;;;18.92;16.50;;;10.90;99.90;;;;;;2072962;28;20089;-71
2021/12/15 02:03:57;;;;;;;21.80;17.02;;;11.00;99.90;;;;;;2073030;28;20113;-71
2021/12/15 02:04:58;;;;;;;21.60;16.73;;;11.00;99.90;;;;;;2073070;28;20036;-71
2021/12/15 02:05:59;;;;;;;19.27;15.77;;;11.00;99.90;;;;;;2072608;28;20025;-71
2021/12/15 02:07:01;;;;;;;21.27;16.98;;;11.00;99.90;;;;;;2072806;28;20033;-71
2021/12/15 02:08:04;;;;;;;22.15;16.88;;;11.00;99.90;;;;;;2072903;28;20037;-71
2021/12/15 02:09:05;;;;;;;20.17;16.15;;;11.00;99.90;;;;;;2071603;28;20033;-71
2021/12/15 02:10:06;;;;;;;22.45;16.65;;;11.00;99.90;;;;;;2072144;28;20022;-71
2021/12/15 02:11:07;;;;;;;20.35;17.05;;;11.00;99.90;;;;;;2072564;28;20057;-71
2021/12/15 02:12:09;;;;;;;22.23;16.92;;;11.00;99.90;;;;;;2072727;28;20160;-71
2021/12/15 02:13:14;;;;;;;23.10;17.27;;;11.00;99.90;;;;;;2072648;28;20457;-71
2021/12/15 02:14:15;;;;;;;18.55;16.42;;;11.00;99.90;;;;;;2072564;28;20027;-71
2021/12/15 02:15:26;;;;;;;23.20;17.45;;;10.90;99.90;;;;;;2072722;28;20105;-71
2021/12/15 02:16:27;;;;;;;22.40;17.00;;;11.00;99.90;;;;;;2072533;28;20029;-71
2021/12/15 02:17:28;;;;;;;21.73;17.05;;;11.00;99.90;;;;;;2072905;28;20105;-71
2021/12/15 02:18:31;;;;;;;20.27;16.88;;;11.00;99.90;;;;;;2072649;28;20077;-71
2021/12/15 02:19:32;;;;;;;22.80;17.02;;;11.00;99.90;;;;;;2072256;28;20117;-71
2021/12/15 02:20:38;;;;;;;19.50;17.10;;;11.00;99.90;;;;;;2072404;28;20018;-71
2021/12/15 02:21:39;;;;;;;21.55;16.52;;;10.90;99.90;;;;;;2072774;28;20030;-71
2021/12/15 02:22:41;;;;;;;19.85;16.00;;;11.00;99.90;;;;;;2072622;28;20093;-71
2021/12/15 02:23:48;;;;;;;20.33;15.77;;;11.00;99.90;;;;;;2072645;28;20022;-71
2021/12/15 02:24:51;;;;;;;21.98;16.73;;;11.00;99.90;;;;;;2072316;28;20124;-71
2021/12/15 02:25:52;;;;;;;19.67;16.83;;;10.90;99.90;;;;;;2069712;28;20354;-71
2021/12/15 02:26:58;;;;;;;21.50;16.63;;;11.00;99.90;;;;;;2075332;28;20029;-71
2021/12/15 02:28:01;;;;;;;24.83;16.38;;;11.00;99.90;;;;;;2072862;28;20076;-71
2021/12/15 02:29:06;;;;;;;19.55;16.33;;;10.90;99.90;;;;;;2079791;28;20045;-71
2021/12/15 02:30:28;;;;;;;25.20;17.27;;;10.90;99.90;;;;;;2070934;28;20084;-71
2021/12/15 02:33:01;;;;;;;20.65;17.13;;;10.90;99.90;;;;;;2078980;28;20100;-71
2021/12/15 02:34:19;;;;;;;22.80;16.73;;;10.90;99.90;;;;;;2072412;28;20041;-71
2021/12/15 02:37:58;;;;;;;23.40;17.33;;;10.80;99.90;;;;;;2068379;28;20026;-71
2021/12/15 02:39:03;;;;;;;21.30;17.83;;;10.80;99.90;;;;;;2070475;28;20030;-71
2021/12/15 02:40:09;;;;;;;22.55;17.67;;;10.80;99.90;;;;;;2071784;28;20105;-71
2021/12/15 02:41:20;;;;;;;22.55;18.08;;;10.90;99.90;;;;;;2063907;28;20026;-71
2021/12/15 02:42:24;;;;;;;24.63;18.77;;;10.80;99.90;;;;;;2071419;28;20109;-71
2021/12/15 02:43:25;;;;;;;23.85;18.55;;;10.90;99.90;;;;;;2073072;28;20028;-71
2021/12/15 02:44:26;;;;;;;26.10;19.02;;;10.90;99.90;;;;;;2072594;28;20053;-71
2021/12/15 02:45:27;;;;;;;23.60;19.40;;;10.90;99.90;;;;;;2072236;28;20026;-71
2021/12/15 02:46:30;;;;;;;27.13;19.70;;;10.90;99.90;;;;;;2072711;28;20470;-71
2021/12/15 02:47:31;;;;;;;23.10;19.13;;;10.90;99.90;;;;;;2069869;28;20032;-71
2021/12/15 02:48:32;;;;;;;25.25;19.83;;;10.90;99.90;;;;;;2068226;28;20092;-71
2021/12/15 02:49:33;;;;;;;24.55;18.77;;;10.90;99.90;;;;;;2071733;28;20022;-71
2021/12/15 02:50:36;;;;;;;24.58;19.65;;;10.90;99.90;;;;;;2072539;28;20026;-71
2021/12/15 02:51:40;;;;;;;22.48;18.67;;;10.90;99.90;;;;;;2072599;28;20036;-71
2021/12/15 02:52:41;;;;;;;22.83;18.65;;;10.90;99.90;;;;;;2072015;28;20044;-71
2021/12/15 02:53:42;;;;;;;22.27;18.10;;;10.90;99.90;;;;;;2072229;28;20029;-71
2021/12/15 02:54:43;;;;;;;23.73;18.27;;;10.90;99.90;;;;;;2071627;28;20033;-71
2021/12/15 02:55:44;;;;;;;23.85;19.15;;;10.90;99.90;;;;;;2071476;28;20022;-71
2021/12/15 02:56:46;;;;;;;23.80;18.52;;;10.90;99.90;;;;;;2072164;28;20032;-71
2021/12/15 02:57:50;;;;;;;25.42;18.67;;;10.90;99.90;;;;;;2072519;28;20037;-71
2021/12/15 02:58:58;;;;;;;21.88;18.73;;;10.90;99.90;;;;;;2071958;28;20034;-71
2021/12/15 03:00:15;;;;;;;23.42;18.23;;;10.90;99.90;;;;;;2072574;28;20029;-71
2021/12/15 03:01:24;;;;;;;22.05;18.45;;;10.90;99.90;;;;;;2072877;28;20094;-71
2021/12/15 03:05:15;;;;;;;21.98;17.73;;;10.80;99.90;;;;;;2073803;28;20746;-71
2021/12/15 03:06:26;;;;;;;32.97;19.85;;;10.80;99.90;;;;;;2074004;28;20386;-71
2021/12/15 03:07:35;;;;;;;31.63;19.33;;;10.80;99.90;;;;;;2073772;28;20076;-71
2021/12/15 03:08:53;;;;;;;24.45;19.15;;;10.80;99.90;;;;;;2073862;28;20026;-71
2021/12/15 03:15:31;;;;;;;23.98;19.42;;;10.80;99.90;;;;;;2073916;28;20486;-71
2021/12/15 03:16:31;;;;;;;23.17;18.67;;;10.70;99.90;;;;;;2073710;28;20029;-71
2021/12/15 03:17:32;;;;;;;24.23;19.95;;;10.70;99.90;;;;;;2073206;28;20486;-71
2021/12/15 03:18:33;;;;;;;23.42;19.13;;;10.70;99.90;;;;;;2072769;28;20026;-71
2021/12/15 03:19:34;;;;;;;27.00;20.45;;;10.70;99.90;;;;;;2073318;28;20014;-71
2021/12/15 03:20:45;;;;;;;26.75;20.13;;;10.80;99.90;;;;;;2072950;28;20052;-70
2021/12/15 03:21:46;;;;;;;23.52;19.92;;;10.70;99.90;;;;;;2073383;28;20084;-70
2021/12/15 03:22:49;;;;;;;22.98;19.85;;;10.80;99.90;;;;;;2073287;28;20057;-70
2021/12/15 03:23:56;;;;;;;24.40;19.98;;;10.80;99.90;;;;;;2073378;28;20534;-70
2021/12/15 03:24:57;;;;;;;28.60;19.88;;;10.70;99.90;;;;;;2073292;28;20030;-70
2021/12/15 03:25:59;;;;;;;23.88;20.40;;;10.80;99.90;;;;;;2073792;28;20022;-70
2021/12/15 03:27:05;;;;;;;22.80;18.67;;;10.80;99.90;;;;;;2078136;28;20026;-70
2021/12/15 03:33:38;;;;;;;25.55;20.65;;;10.70;99.90;;;;;;2072913;28;20057;-70
2021/12/15 03:35:59;;;;;;;25.33;20.77;;;10.70;99.90;;;;;;2073722;28;20026;-70
2021/12/15 03:38:01;;;;;;;23.35;20.50;;;10.70;99.90;;;;;;2073948;28;20022;-70
2021/12/15 03:39:06;;;;;;;22.25;19.85;;;10.80;99.90;;;;;;2071893;28;20033;-70
2021/12/15 03:40:15;;;;;;;28.02;21.20;;;10.80;99.90;;;;;;2065171;28;20022;-70
2021/12/15 03:41:16;;;;;;;24.20;20.25;;;10.80;99.90;;;;;;2072544;28;20037;-70
2021/12/15 03:42:21;;;;;;;26.77;20.60;;;10.80;99.90;;;;;;2073583;28;20025;-70
2021/12/15 03:43:22;;;;;;;22.92;19.48;;;10.80;99.90;;;;;;2073578;28;20026;-70
2021/12/15 03:44:24;;;;;;;24.50;21.67;;;10.80;99.90;;;;;;2073383;28;20033;-70
2021/12/15 03:45:34;;;;;;;24.60;21.42;;;10.80;99.90;;;;;;2073406;28;20405;-70
2021/12/15 03:46:35;;;;;;;26.08;21.35;;;10.80;99.90;;;;;;2065515;28;20034;-70
2021/12/15 03:47:39;;;;;;;25.77;21.20;;;10.80;99.90;;;;;;2068767;28;20114;-70
2021/12/15 03:48:44;;;;;;;29.10;21.10;;;10.80;99.90;;;;;;2073519;28;20032;-70
2021/12/15 03:49:44;;;;;;;23.95;20.15;;;10.80;99.90;;;;;;2074668;28;20037;-70
2021/12/15 03:50:46;;;;;;;27.20;22.15;;;10.80;99.90;;;;;;2078278;28;20128;-70
2021/12/15 03:51:46;;;;;;;24.05;20.63;;;10.80;99.90;;;;;;2072830;28;20061;-70
2021/12/15 03:52:50;;;;;;;28.85;20.85;;;10.80;99.90;;;;;;2073244;28;20097;-70
2021/12/15 03:53:51;;;;;;;31.17;22.08;;;10.80;99.90;;;;;;2073214;28;20441;-70
2021/12/15 03:54:52;;;;;;;23.25;20.40;;;10.80;99.90;;;;;;2073636;28;20033;-70
2021/12/15 03:55:53;;;;;;;26.40;20.70;;;10.80;99.90;;;;;;2073312;28;20114;-70
2021/12/15 03:56:55;;;;;;;23.05;19.75;;;10.80;99.90;;;;;;2073204;28;20454;-70
2021/12/15 03:57:57;;;;;;;23.05;19.98;;;10.80;99.90;;;;;;2073233;28;20533;-70
2021/12/15 03:58:58;;;;;;;23.77;19.75;;;10.90;99.90;;;;;;2073021;28;20022;-70
2021/12/15 03:59:59;;;;;;;21.85;18.85;;;10.80;99.90;;;;;;2073257;28;20014;-70
2021/12/15 04:01:04;;;;;;;22.20;19.83;;;10.90;99.90;;;;;;2073197;28;20104;-70
2021/12/15 04:02:04;;;;;;;21.58;19.08;;;10.90;99.90;;;;;;2072214;28;20092;-70
2021/12/15 04:03:08;;;;;;;23.00;19.98;;;10.90;99.90;;;;;;2072397;28;20025;-70
2021/12/15 04:04:08;;;;;;;24.27;19.33;;;10.80;99.90;;;;;;2072115;28;20022;-70
2021/12/15 04:05:11;;;;;;;27.88;20.30;;;10.80;99.90;;;;;;2072388;28;20114;-70
2021/12/15 04:06:21;;;;;;;22.95;19.65;;;10.80;99.90;;;;;;2072594;28;20034;-70
2021/12/15 04:07:23;;;;;;;24.63;19.83;;;10.80;99.90;;;;;;2072203;28;20034;-70
2021/12/15 04:08:24;;;;;;;23.40;19.80;;;10.80;99.90;;;;;;2071921;28;20065;-70
2021/12/15 04:09:25;;;;;;;24.67;20.45;;;10.80;99.90;;;;;;2069857;28;20030;-70
2021/12/15 04:10:26;;;;;;;25.45;20.08;;;10.80;99.90;;;;;;2068773;28;20034;-71
2021/12/15 04:11:33;;;;;;;22.45;19.48;;;10.80;99.90;;;;;;2071400;28;20026;-70
2021/12/15 04:12:33;;;;;;;22.60;18.85;;;10.80;99.90;;;;;;2071103;28;20026;-71
2021/12/15 04:13:35;;;;;;;27.27;20.50;;;10.80;99.90;;;;;;2072156;28;20024;-70
2021/12/15 04:14:44;;;;;;;24.98;20.63;;;10.80;99.90;;;;;;2072104;28;20451;-71
2021/12/15 04:15:54;;;;;;;25.20;20.15;;;10.80;99.90;;;;;;2066066;28;20022;-70
2021/12/15 04:17:06;;;;;;;23.48;20.10;;;10.80;99.90;;;;;;2072032;28;20398;-70
2021/12/15 04:18:07;;;;;;;22.50;20.02;;;10.80;99.90;;;;;;2072133;28;20025;-70
2021/12/15 04:19:14;;;;;;;23.05;20.00;;;10.80;99.90;;;;;;2070993;28;20030;-71
2021/12/15 04:20:19;;;;;;;22.30;19.80;;;10.80;99.90;;;;;;2072098;28;20442;-71
2021/12/15 04:21:20;;;;;;;23.40;20.38;;;10.80;99.90;;;;;;2065425;28;20089;-70
2021/12/15 04:22:22;;;;;;;23.98;19.20;;;10.80;99.90;;;;;;2071936;28;20071;-71
2021/12/15 04:23:23;;;;;;;23.85;20.20;;;10.80;99.90;;;;;;2071718;28;20080;-70
2021/12/15 04:24:26;;;;;;;25.50;20.80;;;10.80;99.90;;;;;;2071876;28;20140;-70
2021/12/15 04:25:31;;;;;;;24.15;20.35;;;10.80;99.90;;;;;;2063748;28;20017;-70
2021/12/15 04:26:32;;;;;;;26.23;20.40;;;10.80;99.90;;;;;;2070289;28;20045;-70
2021/12/15 04:27:32;;;;;;;25.25;19.67;;;10.80;99.90;;;;;;2074961;28;20053;-70
2021/12/15 04:28:35;;;;;;;27.38;20.50;;;10.80;99.90;;;;;;2073251;28;20096;-71
2021/12/15 04:29:38;;;;;;;24.13;19.25;;;10.80;99.90;;;;;;2072900;28;20014;-70
2021/12/15 04:30:46;;;;;;;24.83;19.88;;;10.80;99.90;;;;;;2072161;28;20036;-71
2021/12/15 04:31:56;;;;;;;29.27;20.90;;;10.80;99.90;;;;;;2071684;28;20045;-70
2021/12/15 04:33:01;;;;;;;25.45;20.15;;;10.80;99.90;;;;;;2071537;28;20030;-70
2021/12/15 04:34:06;;;;;;;24.23;19.90;;;10.80;99.90;;;;;;2072025;28;20506;-70
2021/12/15 04:35:08;;;;;;;24.45;20.25;;;10.80;99.90;;;;;;2071572;28;20112;-70
2021/12/15 04:36:13;;;;;;;24.98;19.88;;;10.80;99.90;;;;;;2071677;28;20021;-70
2021/12/15 04:37:14;;;;;;;23.90;20.02;;;10.80;99.90;;;;;;2078586;28;20056;-71
2021/12/15 04:38:14;;;;;;;24.60;20.33;;;10.80;99.90;;;;;;2072980;28;20505;-71
2021/12/15 04:39:18;;;;;;;26.35;21.05;;;10.80;99.90;;;;;;2072847;28;20032;-70
2021/12/15 04:40:22;;;;;;;25.35;20.65;;;10.80;99.90;;;;;;2071939;28;20113;-71
2021/12/15 04:41:23;;;;;;;24.15;19.88;;;10.80;99.90;;;;;;2071464;28;20026;-70
2021/12/15 04:42:26;;;;;;;24.33;20.13;;;10.80;99.90;;;;;;2071888;28;20026;-71
2021/12/15 04:43:30;;;;;;;24.15;20.20;;;10.80;99.90;;;;;;2071238;28;20351;-71
2021/12/15 04:44:33;;;;;;;23.80;20.30;;;10.80;99.90;;;;;;2071910;28;20545;-71
2021/12/15 04:45:34;;;;;;;24.92;19.88;;;10.80;99.90;;;;;;2071285;28;20022;-71
2021/12/15 04:46:37;;;;;;;26.17;19.83;;;10.80;99.90;;;;;;2071634;28;20100;-71
2021/12/15 04:47:38;;;;;;;23.60;19.17;;;10.80;99.90;;;;;;2071659;28;20025;-72
2021/12/15 04:48:41;;;;;;;22.33;19.15;;;10.80;99.90;;;;;;2071428;28;20072;-71
2021/12/15 04:49:47;;;;;;;25.55;20.35;;;10.80;99.90;;;;;;2063380;28;20018;-71
2021/12/15 04:50:48;;;;;;;26.27;20.80;;;10.80;99.90;;;;;;2071346;28;20028;-71
2021/12/15 04:51:49;;;;;;;26.95;20.88;;;10.80;99.90;;;;;;2071639;28;20022;-71
2021/12/15 04:52:51;;;;;;;25.58;19.30;;;10.80;99.90;;;;;;2071792;28;20028;-71
2021/12/15 04:53:52;;;;;;;23.38;19.98;;;10.80;99.90;;;;;;2071844;28;20528;-71
2021/12/15 04:54:53;;;;;;;26.58;20.42;;;10.80;99.90;;;;;;2071769;28;20387;-71
2021/12/15 04:55:54;;;;;;;23.80;20.42;;;10.80;99.90;;;;;;2071387;28;20018;-71
2021/12/15 04:56:55;;;;;;;25.60;21.42;;;10.80;99.90;;;;;;2071601;28;20101;-70
2021/12/15 04:57:58;;;;;;;28.65;20.90;;;10.80;99.90;;;;;;2071196;28;20034;-71
2021/12/15 04:58:58;;;;;;;25.08;20.48;;;10.90;99.90;;;;;;2070117;28;20049;-71
2021/12/15 05:00:00;;;;;;;26.13;20.02;;;10.90;99.90;;;;;;2071730;28;20077;-71
2021/12/15 05:01:05;;;;;;;27.73;20.63;;;10.80;99.90;;;;;;2065131;28;20738;-70
2021/12/15 05:02:08;;;;;;;24.98;21.23;;;10.90;99.90;;;;;;2066525;28;20018;-70
2021/12/15 05:03:08;;;;;;;23.88;20.83;;;10.80;99.90;;;;;;2070920;28;20038;-70
2021/12/15 05:04:10;;;;;;;24.23;20.25;;;10.90;99.90;;;;;;2071542;28;20026;-70
2021/12/15 05:05:11;;;;;;;23.27;19.88;;;10.90;99.90;;;;;;2071761;28;20105;-71
2021/12/15 05:06:12;;;;;;;24.70;19.13;;;10.90;99.90;;;;;;2071690;28;20040;-71
2021/12/15 05:07:13;;;;;;;24.85;20.13;;;10.90;99.90;;;;;;2071586;28;20033;-71
2021/12/15 05:08:13;;;;;;;23.80;19.27;;;10.90;99.90;;;;;;2071500;28;20033;-70
2021/12/15 05:09:15;;;;;;;25.20;19.67;;;10.90;99.90;;;;;;2070772;28;20443;-70
2021/12/15 05:10:17;;;;;;;24.55;19.05;;;10.90;99.90;;;;;;2068871;28;20308;-70
2021/12/15 05:11:18;;;;;;;25.25;19.90;;;10.90;99.90;;;;;;2071446;28;20481;-70
2021/12/15 05:12:20;;;;;;;23.17;19.35;;;10.90;99.90;;;;;;2071673;28;20398;-70
2021/12/15 05:13:22;;;;;;;23.45;19.70;;;10.90;99.90;;;;;;2070919;28;20030;-71
2021/12/15 05:14:24;;;;;;;25.40;21.23;;;10.90;99.90;;;;;;2071488;28;20033;-70
2021/12/15 05:15:26;;;;;;;25.52;20.58;;;10.90;99.90;;;;;;2070766;28;20026;-70
2021/12/15 05:16:27;;;;;;;22.83;19.10;;;10.90;99.90;;;;;;2070887;28;20021;-70
2021/12/15 05:17:27;;;;;;;23.02;19.38;;;10.90;99.90;;;;;;2071356;28;20018;-70
2021/12/15 05:18:28;;;;;;;23.95;20.88;;;10.90;99.90;;;;;;2071421;28;20038;-70
2021/12/15 05:19:29;;;;;;;25.48;20.85;;;10.90;99.90;;;;;;2070708;28;20029;-70
2021/12/15 05:20:32;;;;;;;24.00;19.75;;;10.90;99.90;;;;;;2071482;28;20021;-70
2021/12/15 05:21:33;;;;;;;27.38;20.83;;;10.90;99.90;;;;;;2070703;28;20440;-70
2021/12/15 05:22:35;;;;;;;22.40;19.50;;;10.90;99.90;;;;;;2070871;28;20097;-70
2021/12/15 05:23:36;;;;;;;24.55;21.05;;;10.90;99.90;;;;;;2071301;28;20029;-71
2021/12/15 05:24:36;;;;;;;25.55;20.25;;;10.90;99.90;;;;;;2071012;28;20026;-70
2021/12/15 05:25:37;;;;;;;28.02;21.15;;;10.90;99.90;;;;;;2071654;28;20033;-70
2021/12/15 05:26:38;;;;;;;25.27;21.23;;;10.90;99.90;;;;;;2072786;28;20033;-71
2021/12/15 05:27:39;;;;;;;22.70;19.15;;;10.90;99.90;;;;;;2074368;28;20109;-71
2021/12/15 05:28:39;;;;;;;24.63;20.25;;;10.90;99.90;;;;;;2070775;28;20983;-71
2021/12/15 05:29:43;;;;;;;25.63;20.33;;;10.90;99.90;;;;;;2070938;28;20469;-71
2021/12/15 05:30:43;;;;;;;22.13;18.38;;;10.90;99.90;;;;;;2071408;28;20033;-71
2021/12/15 05:31:44;;;;;;;28.40;20.83;;;10.90;99.90;;;;;;2071658;28;20049;-71
2021/12/15 05:32:45;;;;;;;25.50;20.70;;;10.90;99.90;;;;;;2071752;28;20081;-71
2021/12/15 05:33:46;;;;;;;22.80;19.60;;;10.90;99.90;;;;;;2071017;28;20101;-71
2021/12/15 05:34:48;;;;;;;21.60;19.05;;;10.90;99.90;;;;;;2071341;28;20037;-71
2021/12/15 05:35:49;;;;;;;20.70;18.40;;;10.90;99.90;;;;;;2071199;28;20468;-71
2021/12/15 05:36:52;;;;;;;24.08;19.33;;;10.90;99.90;;;;;;2071767;28;20101;-71
2021/12/15 05:37:56;;;;;;;22.52;19.00;;;10.90;99.90;;;;;;2071342;28;20022;-71
2021/12/15 05:38:58;;;;;;;23.52;19.50;;;10.90;99.90;;;;;;2071436;28;20100;-71
2021/12/15 05:39:59;;;;;;;24.13;19.95;;;10.90;99.90;;;;;;2062826;28;20030;-71
2021/12/15 05:40:59;;;;;;;22.60;19.02;;;10.90;99.90;;;;;;2066362;28;20102;-71
2021/12/15 05:42:00;;;;;;;20.98;18.17;;;10.90;99.90;;;;;;2071400;28;20453;-71
2021/12/15 05:43:03;;;;;;;21.88;18.00;;;10.90;99.90;;;;;;2073006;28;20025;-71
2021/12/15 05:44:05;;;;;;;20.52;18.30;;;10.90;99.90;;;;;;2076898;28;20535;-71
2021/12/15 05:45:07;;;;;;;24.10;19.80;;;10.90;99.90;;;;;;2070793;28;20038;-71
2021/12/15 05:46:08;;;;;;;20.98;17.38;;;10.90;99.90;;;;;;2070600;28;20068;-71
2021/12/15 05:47:09;;;;;;;23.70;19.65;;;10.90;99.90;;;;;;2074527;28;20466;-71
2021/12/15 05:48:13;;;;;;;24.35;19.48;;;10.90;99.90;;;;;;2071184;28;20036;-71
2021/12/15 05:49:14;;;;;;;21.33;17.48;;;10.90;99.90;;;;;;2070586;28;20033;-71
2021/12/15 05:50:14;;;;;;;23.88;18.15;;;10.90;99.90;;;;;;2071122;28;20022;-71
2021/12/15 05:51:15;;;;;;;20.63;18.30;;;10.90;99.90;;;;;;2071439;28;20053;-71
2021/12/15 05:52:17;;;;;;;23.02;19.52;;;10.90;99.90;;;;;;2071511;28;20049;-71